Time;durP1;ratioP1;P1;durP2;ratioP2;P2;SDS_P1;SDS_P2;PMS_P1;PMS_P2;Temp;Humidity;BMP_temperature;BMP_pressure;BME280_temperature;BME280_humidity;BME280_pressure;Samples;Min_cycle;Max_cycle;Signal;HPM_P1;HPM_P2
2022/06/10 00:00:08;;;;;;;1.67;0.20;;;12.10;99.90;;;;;;5010248;28;20042;-78
2022/06/10 00:02:34;;;;;;;1.85;0.20;;;12.00;99.90;;;;;;4996577;28;20116;-78
2022/06/10 00:05:00;;;;;;;1.80;0.28;;;12.00;99.90;;;;;;5013192;28;20083;-78
2022/06/10 00:07:27;;;;;;;1.25;0.30;;;12.00;99.90;;;;;;5009406;28;20029;-78
2022/06/10 00:09:53;;;;;;;1.48;0.30;;;12.00;99.90;;;;;;5009491;28;20044;-78
2022/06/10 00:12:19;;;;;;;1.55;0.30;;;11.90;99.90;;;;;;5009337;28;20033;-78
2022/06/10 00:14:44;;;;;;;0.65;0.20;;;11.90;99.90;;;;;;5015153;28;20041;-78
2022/06/10 00:17:10;;;;;;;0.93;0.20;;;11.90;99.90;;;;;;5011367;28;20473;-78
2022/06/10 00:19:36;;;;;;;2.00;0.38;;;11.90;99.90;;;;;;5008339;28;20627;-78
2022/06/10 00:22:02;;;;;;;1.85;0.38;;;11.90;99.90;;;;;;5015386;28;20029;-78
2022/06/10 00:24:27;;;;;;;1.33;0.30;;;11.90;99.90;;;;;;5022954;28;20033;-78
2022/06/10 00:26:53;;;;;;;1.38;0.30;;;11.90;99.90;;;;;;4999938;28;20044;-78
2022/06/10 00:29:19;;;;;;;1.17;0.30;;;11.90;99.90;;;;;;5006722;28;20034;-78
2022/06/10 00:31:45;;;;;;;2.78;0.22;;;11.90;99.90;;;;;;5007899;28;20044;-78
2022/06/10 00:34:11;;;;;;;2.50;0.30;;;11.90;99.90;;;;;;5010484;28;20034;-78
2022/06/10 00:36:37;;;;;;;1.27;0.20;;;11.90;99.90;;;;;;5016442;28;20058;-78
2022/06/10 00:39:03;;;;;;;1.75;0.20;;;11.90;99.90;;;;;;5016112;28;20067;-78
2022/06/10 00:41:29;;;;;;;2.13;0.30;;;11.90;99.90;;;;;;5007350;28;20029;-78
2022/06/10 00:43:56;;;;;;;1.27;0.30;;;11.90;99.90;;;;;;5016600;28;20025;-78
2022/06/10 00:46:26;;;;;;;2.97;0.20;;;11.90;99.90;;;;;;4998017;28;20029;-78
2022/06/10 00:49:13;;;;;;;1.23;0.30;;;11.90;99.90;;;;;;4997912;28;20064;-78
2022/06/10 00:51:43;;;;;;;1.13;0.30;;;11.80;99.90;;;;;;5014927;28;20038;-77
2022/06/10 00:54:28;;;;;;;2.35;0.22;;;11.70;99.90;;;;;;4999943;28;20030;-78
2022/06/10 00:57:03;;;;;;;0.68;0.20;;;11.60;99.90;;;;;;5007217;28;20034;-78
2022/06/10 00:59:37;;;;;;;1.88;0.30;;;11.60;99.90;;;;;;5015861;28;20046;-77
2022/06/10 01:02:10;;;;;;;2.15;0.40;;;11.50;99.90;;;;;;5011812;28;20045;-78
2022/06/10 01:04:36;;;;;;;2.40;0.28;;;11.50;99.90;;;;;;5016876;28;20042;-78
2022/06/10 01:07:02;;;;;;;1.48;0.40;;;11.50;99.90;;;;;;4998795;28;20052;-78
2022/06/10 01:09:30;;;;;;;2.38;0.30;;;11.40;99.90;;;;;;5007926;28;20025;-78
2022/06/10 01:12:22;;;;;;;0.98;0.30;;;11.40;99.90;;;;;;5006713;28;20045;-78
2022/06/10 01:14:58;;;;;;;1.13;0.30;;;11.40;99.90;;;;;;5006012;28;20030;-77
2022/06/10 01:17:39;;;;;;;1.50;0.30;;;11.40;99.90;;;;;;4996237;28;20033;-78
2022/06/10 01:20:13;;;;;;;0.85;0.20;;;11.30;99.90;;;;;;5015872;28;20469;-78
2022/06/10 01:22:57;;;;;;;1.38;0.40;;;11.40;99.90;;;;;;5005858;28;20041;-78
2022/06/10 01:25:34;;;;;;;1.13;0.28;;;11.30;99.90;;;;;;5005574;28;20068;-78
2022/06/10 01:28:34;;;;;;;0.88;0.30;;;11.20;99.90;;;;;;4988367;28;20033;-78
2022/06/10 01:31:08;;;;;;;0.75;0.20;;;11.20;99.90;;;;;;5006032;28;20026;-78
2022/06/10 01:33:44;;;;;;;1.80;0.30;;;11.20;99.90;;;;;;5010792;28;20034;-78
2022/06/10 01:36:24;;;;;;;1.85;0.47;;;11.20;99.90;;;;;;5014941;28;20053;-78
2022/06/10 01:39:13;;;;;;;1.83;0.20;;;11.20;99.90;;;;;;5026298;28;20033;-78
2022/06/10 01:41:58;;;;;;;3.28;0.20;;;11.20;99.90;;;;;;5033775;28;20120;-77
2022/06/10 01:44:39;;;;;;;1.33;0.40;;;11.10;99.90;;;;;;5042360;28;20030;-77
2022/06/10 01:47:18;;;;;;;1.35;0.20;;;11.20;99.90;;;;;;5029443;28;20025;-78
2022/06/10 01:50:04;;;;;;;1.27;0.20;;;11.20;99.90;;;;;;5045405;28;20504;-78
2022/06/10 01:52:39;;;;;;;0.60;0.20;;;11.20;99.90;;;;;;5026321;28;20036;-78
2022/06/10 01:55:15;;;;;;;1.80;0.30;;;11.10;99.90;;;;;;5028749;28;20033;-77
2022/06/10 01:57:55;;;;;;;1.83;0.30;;;11.10;99.90;;;;;;5027305;28;20030;-78
2022/06/10 02:00:24;;;;;;;;;;;11.20;99.90;;;;;;5028407;28;20037;-78
2022/06/10 02:03:01;;;;;;;2.17;0.30;;;11.10;99.90;;;;;;5018783;28;19940;-79
2022/06/10 02:05:31;;;;;;;1.88;0.50;;;11.00;99.90;;;;;;5026385;28;20057;-78
2022/06/10 02:08:20;;;;;;;0.60;0.20;;;11.00;99.90;;;;;;5013848;28;20108;-78
2022/06/10 02:10:53;;;;;;;1.10;0.30;;;11.00;99.90;;;;;;5026536;28;20087;-78
2022/06/10 02:13:25;;;;;;;2.28;0.40;;;11.10;99.90;;;;;;5017929;28;20443;-77
2022/06/10 02:15:54;;;;;;;1.10;0.20;;;11.10;99.90;;;;;;5019545;28;20036;-78
2022/06/10 02:18:43;;;;;;;2.42;0.30;;;11.00;99.90;;;;;;5032040;28;20484;-78
2022/06/10 02:21:14;;;;;;;1.98;0.30;;;11.10;99.90;;;;;;5029900;28;20052;-78
2022/06/10 02:23:47;;;;;;;1.08;0.30;;;11.00;99.90;;;;;;5040247;28;20029;-77
2022/06/10 02:26:14;;;;;;;1.98;0.30;;;11.00;99.90;;;;;;5032148;28;20048;-77
2022/06/10 02:28:46;;;;;;;1.30;0.40;;;11.00;99.90;;;;;;5039637;28;20645;-78
2022/06/10 02:31:27;;;;;;;1.25;0.50;;;11.00;99.90;;;;;;5023054;28;20048;-78
2022/06/10 02:33:53;;;;;;;1.63;0.40;;;11.10;99.90;;;;;;5028861;28;20071;-77
2022/06/10 02:36:47;;;;;;;3.70;0.90;;;10.90;99.90;;;;;;5023427;28;20049;-77
2022/06/10 02:39:45;;;;;;;1.48;0.40;;;10.90;99.90;;;;;;5039405;28;20116;-78
2022/06/10 02:42:17;;;;;;;1.90;0.40;;;10.90;99.90;;;;;;5028173;28;20017;-78
2022/06/10 02:45:01;;;;;;;2.80;0.30;;;10.90;99.90;;;;;;5035280;28;20052;-78
2022/06/10 02:47:36;;;;;;;1.25;0.40;;;10.90;99.90;;;;;;5039420;28;20029;-78
2022/06/10 02:50:03;;;;;;;1.80;0.45;;;10.90;99.90;;;;;;5037888;28;20376;-78
2022/06/10 02:52:33;;;;;;;3.78;0.40;;;11.00;99.90;;;;;;5039002;28;20056;-78
2022/06/10 02:54:59;;;;;;;1.90;0.43;;;11.00;99.90;;;;;;5016919;28;20116;-78
2022/06/10 03:03:10;;;;;;;1.08;0.40;;;11.10;99.90;;;;;;5028136;28;20083;-78
2022/06/10 03:05:46;;;;;;;1.35;0.40;;;11.20;99.90;;;;;;5028421;28;20503;-78
2022/06/10 03:08:31;;;;;;;1.88;0.45;;;11.30;99.90;;;;;;5021829;28;20064;-78
2022/06/10 03:11:22;;;;;;;1.25;0.40;;;11.40;99.90;;;;;;5029539;28;20029;-78
2022/06/10 03:14:28;;;;;;;3.80;0.40;;;11.50;99.90;;;;;;5034167;28;20030;-77
2022/06/10 03:17:04;;;;;;;2.33;0.40;;;11.50;99.90;;;;;;5029821;28;20481;-78
2022/06/10 03:20:08;;;;;;;1.55;0.35;;;11.60;99.90;;;;;;5027538;28;20033;-77
2022/06/10 03:22:52;;;;;;;1.60;0.40;;;11.70;99.90;;;;;;5030197;28;20040;-78
2022/06/10 03:25:24;;;;;;;1.70;0.40;;;11.70;99.90;;;;;;5027945;28;20044;-76
2022/06/10 03:28:04;;;;;;;2.40;0.38;;;11.80;99.90;;;;;;5015847;28;20029;-78
2022/06/10 03:30:35;;;;;;;1.25;0.35;;;11.90;99.90;;;;;;5033755;28;20029;-78
2022/06/10 03:33:21;;;;;;;2.30;0.50;;;12.00;99.90;;;;;;5032312;28;20032;-78
2022/06/10 03:36:06;;;;;;;2.90;0.50;;;12.00;99.90;;;;;;5036696;28;20072;-78
2022/06/10 03:38:37;;;;;;;1.58;0.47;;;12.10;99.90;;;;;;5031934;28;20029;-77
2022/06/10 03:41:03;;;;;;;1.30;0.40;;;12.20;99.90;;;;;;5046767;28;20037;-78
2022/06/10 03:43:38;;;;;;;1.48;0.40;;;12.20;99.90;;;;;;5031239;28;20039;-78
2022/06/10 03:46:08;;;;;;;3.22;0.40;;;12.30;99.90;;;;;;5018782;28;20084;-78
2022/06/10 03:48:36;;;;;;;3.10;0.40;;;12.40;99.90;;;;;;5016048;28;20029;-78
2022/06/10 03:51:02;;;;;;;3.30;0.68;;;12.50;99.90;;;;;;5027232;28;20120;-78
2022/06/10 03:53:28;;;;;;;1.90;0.55;;;12.50;99.90;;;;;;5036690;28;20029;-78
2022/06/10 03:55:53;;;;;;;3.80;0.50;;;12.50;99.90;;;;;;5036764;28;20071;-78
2022/06/10 03:58:20;;;;;;;2.45;0.60;;;12.50;99.90;;;;;;5019175;28;20041;-77
2022/06/10 04:00:46;;;;;;;2.30;0.55;;;12.60;99.90;;;;;;5032301;28;20075;-78
2022/06/10 04:03:12;;;;;;;3.75;0.60;;;12.60;99.90;;;;;;5027815;28;20359;-78
2022/06/10 04:05:39;;;;;;;1.70;0.70;;;12.70;99.90;;;;;;5036469;28;20033;-77
2022/06/10 04:08:06;;;;;;;2.78;0.50;;;12.70;99.90;;;;;;5036452;28;20048;-78
2022/06/10 04:10:31;;;;;;;2.70;0.50;;;12.80;99.90;;;;;;5029856;28;20056;-78
2022/06/10 04:12:58;;;;;;;3.17;0.60;;;12.80;99.90;;;;;;5026901;28;20033;-77
2022/06/10 04:15:27;;;;;;;1.98;0.40;;;12.90;99.90;;;;;;5027452;28;20069;-78
2022/06/10 04:17:55;;;;;;;4.03;0.60;;;13.00;99.90;;;;;;5027310;28;20126;-78
2022/06/10 04:20:32;;;;;;;3.53;0.85;;;13.00;99.90;;;;;;5014980;28;20135;-78
2022/06/10 04:22:58;;;;;;;6.20;0.80;;;13.10;99.90;;;;;;5018486;28;21777;-78
2022/06/10 04:25:24;;;;;;;4.03;0.57;;;13.10;99.90;;;;;;5028064;28;20480;-78
2022/06/10 04:27:51;;;;;;;5.10;1.10;;;13.20;99.90;;;;;;5015529;28;20695;-79
2022/06/10 04:30:26;;;;;;;4.05;0.60;;;13.30;99.90;;;;;;5030337;28;20686;-78
2022/06/10 04:32:52;;;;;;;3.72;0.43;;;13.30;99.90;;;;;;5027279;28;20025;-84
2022/06/10 04:35:18;;;;;;;4.35;0.57;;;13.40;99.90;;;;;;5046499;28;20048;-77
2022/06/10 04:37:45;;;;;;;3.47;0.50;;;13.40;99.90;;;;;;5027260;28;20033;-78
2022/06/10 04:40:13;;;;;;;5.55;0.82;;;13.40;99.90;;;;;;5030320;28;20418;-79
2022/06/10 04:42:40;;;;;;;5.65;0.90;;;13.40;99.90;;;;;;5027372;28;20480;-78
2022/06/10 04:45:07;;;;;;;4.07;0.60;;;13.40;99.90;;;;;;5026935;28;20390;-78
2022/06/10 04:47:33;;;;;;;3.85;0.60;;;13.40;99.90;;;;;;5027782;28;20021;-77
2022/06/10 04:49:59;;;;;;;4.05;0.60;;;13.40;99.90;;;;;;5033003;28;20053;-78
2022/06/10 04:52:27;;;;;;;2.65;0.47;;;13.50;99.90;;;;;;5037148;28;20018;-78
2022/06/10 04:54:53;;;;;;;5.60;0.77;;;13.60;99.90;;;;;;5018717;28;20041;-78
2022/06/10 04:57:20;;;;;;;8.52;0.90;;;13.60;99.90;;;;;;5028227;28;20017;-79
2022/06/10 04:59:46;;;;;;;4.85;0.60;;;13.70;99.90;;;;;;5026440;28;20823;-77
2022/06/10 05:02:12;;;;;;;3.60;0.60;;;13.70;99.90;;;;;;5026857;28;20069;-77
2022/06/10 05:04:38;;;;;;;2.95;0.40;;;13.60;99.90;;;;;;5036048;28;20164;-78
2022/06/10 05:07:04;;;;;;;4.10;0.50;;;13.60;99.90;;;;;;5027422;28;20066;-79
2022/06/10 05:09:30;;;;;;;3.33;0.40;;;13.60;99.90;;;;;;5027554;28;20429;-78
2022/06/10 05:11:55;;;;;;;2.33;0.32;;;13.60;99.90;;;;;;5030471;28;20120;-78
2022/06/10 05:14:21;;;;;;;3.08;0.40;;;13.60;99.90;;;;;;5012894;28;20070;-79
2022/06/10 05:16:47;;;;;;;2.20;0.45;;;13.80;99.90;;;;;;5028238;28;20084;-80
2022/06/10 05:19:13;;;;;;;2.00;0.30;;;13.80;99.90;;;;;;5035095;28;20037;-78
2022/06/10 05:21:39;;;;;;;1.77;0.30;;;13.80;99.90;;;;;;5026872;28;20041;-78
2022/06/10 05:24:05;;;;;;;2.05;0.40;;;13.80;99.90;;;;;;5028738;28;20088;-78
2022/06/10 05:26:32;;;;;;;1.65;0.40;;;13.80;99.90;;;;;;5012835;28;20044;-78
2022/06/10 05:28:59;;;;;;;1.65;0.45;;;13.80;99.90;;;;;;5031899;28;20089;-79
2022/06/10 05:31:25;;;;;;;2.95;0.40;;;13.80;99.90;;;;;;5026664;28;20037;-78
2022/06/10 05:36:35;;;;;;;3.45;0.50;;;13.80;99.90;;;;;;5028016;28;20059;-79
2022/06/10 05:39:00;;;;;;;2.15;0.40;;;13.90;99.90;;;;;;5018615;28;20033;-78
2022/06/10 05:44:10;;;;;;;3.38;0.40;;;14.10;99.90;;;;;;5026248;28;20045;-79
2022/06/10 05:46:36;;;;;;;2.00;0.30;;;14.30;99.90;;;;;;5033731;28;20042;-78
2022/06/10 05:49:02;;;;;;;2.70;0.50;;;14.40;99.90;;;;;;5025793;28;20112;-78
2022/06/10 05:51:28;;;;;;;1.50;0.40;;;14.50;99.90;;;;;;5012856;28;20022;-79
2022/06/10 05:53:53;;;;;;;3.00;0.50;;;14.60;99.90;;;;;;5027543;28;20468;-79
2022/06/10 05:56:19;;;;;;;3.78;0.60;;;14.70;99.90;;;;;;5024306;28;20032;-79
2022/06/10 05:58:45;;;;;;;3.00;0.50;;;14.70;99.90;;;;;;5013608;28;20030;-79
2022/06/10 06:01:10;;;;;;;3.45;0.65;;;14.80;99.90;;;;;;5029312;28;20045;-78
2022/06/10 06:03:37;;;;;;;2.95;0.50;;;14.90;99.90;;;;;;5025930;28;20025;-78
2022/06/10 06:06:03;;;;;;;3.72;0.50;;;14.90;99.90;;;;;;5033858;28;20048;-79
2022/06/10 06:08:28;;;;;;;2.88;0.50;;;15.00;99.90;;;;;;5034423;28;20393;-77
2022/06/10 06:10:54;;;;;;;2.33;0.40;;;15.10;99.90;;;;;;5027317;28;20179;-79
2022/06/10 06:13:20;;;;;;;5.93;0.80;;;15.10;99.90;;;;;;5021512;28;20033;-78
2022/06/10 06:15:46;;;;;;;4.32;0.70;;;14.90;99.90;;;;;;5028991;28;20034;-79
2022/06/10 06:18:12;;;;;;;2.70;0.40;;;15.00;99.90;;;;;;5040362;28;20029;-80
2022/06/10 06:20:37;;;;;;;4.90;0.43;;;15.10;99.90;;;;;;5016702;28;20099;-79
2022/06/10 06:23:03;;;;;;;4.60;0.80;;;15.20;99.90;;;;;;5017341;28;20121;-78
2022/06/10 06:25:30;;;;;;;1.75;0.50;;;15.20;99.90;;;;;;5023868;28;20033;-78
2022/06/10 06:27:56;;;;;;;3.60;0.50;;;15.30;99.90;;;;;;5024973;28;20079;-78
2022/06/10 06:30:31;;;;;;;3.70;0.40;;;15.40;99.90;;;;;;5026750;28;20033;-78
2022/06/10 06:32:58;;;;;;;2.30;0.50;;;15.50;99.90;;;;;;5030540;28;20057;-79
2022/06/10 06:35:25;;;;;;;2.25;0.40;;;15.60;99.90;;;;;;5026050;28;20060;-79
2022/06/10 06:37:51;;;;;;;2.28;0.40;;;15.80;99.90;;;;;;5026223;28;20033;-78
2022/06/10 06:40:16;;;;;;;3.55;0.40;;;15.80;99.90;;;;;;5028198;28;20045;-79
2022/06/10 06:42:44;;;;;;;3.00;0.50;;;16.00;99.90;;;;;;5025998;28;20032;-78
2022/06/10 06:45:11;;;;;;;4.70;0.60;;;16.20;99.90;;;;;;5025284;28;20109;-78
2022/06/10 06:47:38;;;;;;;1.83;0.40;;;16.40;99.90;;;;;;5016962;28;20033;-78
2022/06/10 06:50:05;;;;;;;2.17;0.40;;;16.90;99.90;;;;;;5044350;28;20172;-79
2022/06/10 06:52:31;;;;;;;1.92;0.50;;;17.30;99.90;;;;;;5044388;28;20025;-78
2022/06/10 06:54:56;;;;;;;3.17;0.45;;;17.50;99.90;;;;;;5030432;28;20369;-78
2022/06/10 06:57:25;;;;;;;4.07;0.70;;;17.50;99.90;;;;;;5028587;28;22111;-79
2022/06/10 06:59:53;;;;;;;2.40;0.40;;;17.70;99.90;;;;;;5025664;28;20049;-79
2022/06/10 07:02:19;;;;;;;6.30;1.00;;;17.80;99.90;;;;;;5026043;28;20043;-78
2022/06/10 07:04:45;;;;;;;6.07;0.65;;;17.40;99.90;;;;;;5011710;28;20635;-79
2022/06/10 07:07:10;;;;;;;3.10;0.80;;;17.60;99.90;;;;;;5016423;28;20036;-79
2022/06/10 07:09:36;;;;;;;4.43;1.08;;;17.60;99.90;;;;;;5021189;28;20035;-79
2022/06/10 07:12:02;;;;;;;5.07;0.80;;;18.10;99.90;;;;;;5036260;28;20018;-79
2022/06/10 07:14:27;;;;;;;2.13;0.60;;;18.20;99.90;;;;;;5033468;28;20454;-79
2022/06/10 07:16:53;;;;;;;7.32;0.60;;;17.80;99.90;;;;;;5031811;28;20040;-79
2022/06/10 07:19:20;;;;;;;4.43;0.70;;;18.40;99.90;;;;;;5028055;28;20033;-79
2022/06/10 07:21:46;;;;;;;2.38;0.60;;;18.80;99.90;;;;;;5030425;28;20728;-78
2022/06/10 07:24:12;;;;;;;4.88;0.95;;;19.10;99.90;;;;;;5048094;28;22229;-79
2022/06/10 07:26:39;;;;;;;3.05;0.55;;;19.50;99.90;;;;;;5037110;28;20029;-80
2022/06/10 07:29:05;;;;;;;2.17;0.50;;;19.50;99.90;;;;;;5020438;28;20095;-79
2022/06/10 07:31:31;;;;;;;1.50;0.40;;;19.40;99.90;;;;;;5019751;28;20166;-78
2022/06/10 07:33:58;;;;;;;2.63;0.60;;;19.10;99.90;;;;;;5044046;28;20108;-80
2022/06/10 07:36:26;;;;;;;5.78;0.60;;;18.80;99.90;;;;;;5027190;28;20076;-79
2022/06/10 07:38:53;;;;;;;2.08;0.50;;;18.50;99.90;;;;;;5037848;28;20729;-77
2022/06/10 07:44:04;;;;;;;3.28;0.40;;;18.40;99.90;;;;;;5029832;28;20025;-79
2022/06/10 07:46:29;;;;;;;2.25;0.50;;;18.40;99.90;;;;;;5034055;28;20029;-80
2022/06/10 07:48:55;;;;;;;3.53;0.40;;;18.50;99.90;;;;;;5028951;28;20028;-79
2022/06/10 07:51:21;;;;;;;3.08;0.40;;;18.40;99.90;;;;;;5029063;28;20643;-80
2022/06/10 07:53:47;;;;;;;2.33;0.40;;;18.30;99.90;;;;;;5028582;28;20057;-79
2022/06/10 07:56:16;;;;;;;2.30;0.47;;;18.10;99.90;;;;;;5032779;28;20505;-80
2022/06/10 07:58:43;;;;;;;2.03;0.50;;;18.10;99.90;;;;;;5036236;28;20457;-79
2022/06/10 08:01:10;;;;;;;1.45;0.30;;;18.10;99.90;;;;;;5036791;28;20040;-77
2022/06/10 08:03:36;;;;;;;1.50;0.30;;;18.20;99.90;;;;;;5026988;28;20071;-78
2022/06/10 08:06:03;;;;;;;2.90;0.40;;;18.20;99.90;;;;;;5035853;28;20366;-78
2022/06/10 08:08:29;;;;;;;3.72;0.40;;;18.20;99.90;;;;;;5017498;28;20156;-79
2022/06/10 08:10:55;;;;;;;3.08;0.38;;;18.10;99.90;;;;;;5042960;28;20033;-78
2022/06/10 08:13:21;;;;;;;2.03;0.30;;;18.20;99.90;;;;;;5031203;28;20029;-79
2022/06/10 08:15:48;;;;;;;2.28;0.30;;;18.40;99.90;;;;;;5042727;28;20029;-80
2022/06/10 08:18:17;;;;;;;2.63;0.40;;;18.50;99.90;;;;;;5035311;28;20033;-79
2022/06/10 08:23:29;;;;;;;1.95;0.30;;;18.70;99.90;;;;;;5032482;28;20060;-80
2022/06/10 08:25:57;;;;;;;1.38;0.20;;;18.80;99.90;;;;;;5015344;28;20033;-80
2022/06/10 08:28:23;;;;;;;1.17;0.20;;;19.10;99.90;;;;;;5026707;28;20025;-78
2022/06/10 08:30:49;;;;;;;1.75;0.30;;;19.20;99.90;;;;;;5027948;28;20029;-80
2022/06/10 08:33:15;;;;;;;1.83;0.20;;;19.00;99.90;;;;;;5017793;28;20119;-82
2022/06/10 08:35:41;;;;;;;2.65;0.20;;;19.20;99.90;;;;;;5026309;28;20523;-81
2022/06/10 08:38:10;;;;;;;3.63;0.20;;;19.10;99.90;;;;;;5027089;28;20602;-79
2022/06/10 08:41:06;;;;;;;2.20;0.30;;;19.50;99.90;;;;;;5025443;28;20034;-83
2022/06/10 08:44:06;;;;;;;1.48;0.20;;;19.60;99.90;;;;;;5031373;28;20078;-79
2022/06/10 08:46:43;;;;;;;2.63;0.40;;;20.30;99.90;;;;;;5031481;28;20248;-83
2022/06/10 08:49:09;;;;;;;3.38;0.30;;;20.60;99.90;;;;;;5027245;28;20464;-81
2022/06/10 08:52:03;;;;;;;1.50;0.20;;;20.60;99.90;;;;;;5021051;28;20039;-81
2022/06/10 08:54:57;;;;;;;3.60;0.30;;;20.50;99.90;;;;;;5025879;28;20047;-83
2022/06/10 08:57:38;;;;;;;3.72;0.60;;;20.40;99.90;;;;;;5019484;28;20431;-79
2022/06/10 09:00:20;;;;;;;1.27;0.10;;;20.70;99.90;;;;;;5031257;28;20041;-79
2022/06/10 09:03:27;;;;;;;1.92;0.20;;;21.00;99.90;;;;;;5027871;28;20461;-79
2022/06/10 09:06:00;;;;;;;2.50;0.30;;;20.90;99.90;;;;;;5024521;28;20040;-81
2022/06/10 09:08:34;;;;;;;1.13;0.15;;;21.40;99.90;;;;;;5045668;28;20037;-79
2022/06/10 09:11:19;;;;;;;1.88;0.20;;;22.00;99.90;;;;;;5030299;28;20093;-81
2022/06/10 09:14:09;;;;;;;2.55;0.30;;;21.50;99.90;;;;;;5026959;28;20071;-80
2022/06/10 09:16:54;;;;;;;2.45;0.30;;;21.60;99.90;;;;;;5028893;28;20032;-81
2022/06/10 09:19:55;;;;;;;3.17;0.20;;;21.90;99.90;;;;;;5026647;28;20029;-80
2022/06/10 09:22:36;;;;;;;2.65;0.35;;;21.90;99.90;;;;;;5035389;28;20071;-82
2022/06/10 09:25:30;;;;;;;1.65;0.28;;;22.90;99.90;;;;;;5012277;28;20416;-78
2022/06/10 09:28:00;;;;;;;1.90;0.30;;;22.50;99.90;;;;;;5024786;28;20072;-79
2022/06/10 09:30:37;;;;;;;1.05;0.20;;;22.60;99.90;;;;;;5033974;28;20099;-80
2022/06/10 09:33:14;;;;;;;1.80;0.20;;;22.70;99.90;;;;;;5035047;28;20476;-80
2022/06/10 09:35:46;;;;;;;1.40;0.28;;;22.90;99.90;;;;;;5028991;28;20049;-82
2022/06/10 09:38:18;;;;;;;1.73;0.20;;;22.90;99.90;;;;;;5026420;28;20021;-83
2022/06/10 09:41:10;;;;;;;3.60;0.20;;;22.80;99.90;;;;;;5025430;28;20048;-80
2022/06/10 09:43:55;;;;;;;2.88;0.20;;;23.10;99.90;;;;;;5016984;28;20035;-82
2022/06/10 09:46:39;;;;;;;2.08;0.20;;;23.00;99.90;;;;;;5013829;28;20059;-80
2022/06/10 09:49:42;;;;;;;2.08;0.20;;;23.00;99.90;;;;;;5035391;28;20037;-81
2022/06/10 09:52:14;;;;;;;2.17;0.25;;;23.00;99.90;;;;;;5026651;28;20075;-79
2022/06/10 09:54:58;;;;;;;1.15;0.20;;;22.90;99.90;;;;;;5023741;28;20644;-80
2022/06/10 09:57:23;;;;;;;2.05;0.22;;;22.70;99.90;;;;;;5016579;28;20130;-81
2022/06/10 10:00:05;;;;;;;3.03;0.20;;;22.60;99.90;;;;;;5023303;28;20049;-80
2022/06/10 10:02:59;;;;;;;1.15;0.20;;;23.10;99.90;;;;;;5023776;28;20060;-80
2022/06/10 10:05:46;;;;;;;3.25;0.22;;;23.30;99.90;;;;;;5009691;28;20373;-80
2022/06/10 10:08:26;;;;;;;3.40;0.30;;;23.00;99.90;;;;;;5023667;28;20033;-80
2022/06/10 10:10:56;;;;;;;1.23;0.20;;;22.80;99.90;;;;;;5025403;28;20370;-81
2022/06/10 10:13:40;;;;;;;2.17;0.25;;;23.10;99.90;;;;;;5024075;28;20029;-79
2022/06/10 10:16:47;;;;;;;2.15;0.20;;;22.90;99.90;;;;;;5025766;28;20033;-80
2022/06/10 10:19:46;;;;;;;2.38;0.22;;;23.30;99.90;;;;;;5032644;28;20033;-80
2022/06/10 10:22:15;;;;;;;;;;;23.30;99.90;;;;;;5032857;28;20103;-79
2022/06/10 10:24:44;;;;;;;1.92;0.20;;;23.30;99.90;;;;;;5040582;28;19920;-79
2022/06/10 10:27:21;;;;;;;2.40;0.20;;;23.50;99.90;;;;;;5011243;28;20052;-79
2022/06/10 10:29:51;;;;;;;2.55;0.28;;;23.60;99.90;;;;;;5040063;28;20049;-83
2022/06/10 10:32:21;;;;;;;1.60;0.30;;;23.80;99.90;;;;;;5038666;28;20033;-80
2022/06/10 10:34:53;;;;;;;2.65;0.20;;;23.80;99.90;;;;;;5027354;28;20326;-79
2022/06/10 10:37:25;;;;;;;2.72;0.40;;;24.00;99.90;;;;;;5016501;28;20472;-80
2022/06/10 10:39:54;;;;;;;3.15;0.28;;;23.50;99.90;;;;;;5028443;28;20079;-80
2022/06/10 10:42:23;;;;;;;2.42;0.25;;;23.70;99.90;;;;;;5028383;28;20469;-79
2022/06/10 10:45:23;;;;;;;2.65;0.22;;;23.80;99.90;;;;;;5034553;28;20149;-82
2022/06/10 10:47:59;;;;;;;4.00;0.20;;;24.00;99.90;;;;;;5028935;28;20045;-78
2022/06/10 10:50:33;;;;;;;1.45;0.30;;;24.40;99.90;;;;;;5034801;28;20037;-79
2022/06/10 10:53:00;;;;;;;2.20;0.20;;;25.10;99.90;;;;;;5029200;28;20021;-79
2022/06/10 10:55:36;;;;;;;1.48;0.20;;;24.90;99.90;;;;;;5022143;28;20064;-79
2022/06/10 10:58:18;;;;;;;2.97;0.30;;;25.10;99.90;;;;;;5029523;28;20404;-80
2022/06/10 11:00:52;;;;;;;3.63;0.28;;;24.60;99.90;;;;;;5027970;28;20064;-78
2022/06/10 11:03:49;;;;;;;2.58;0.20;;;24.60;99.90;;;;;;5032043;28;20547;-79
2022/06/10 11:06:32;;;;;;;3.67;0.30;;;24.00;99.90;;;;;;5027389;28;20116;-82
2022/06/10 11:09:24;;;;;;;1.23;0.20;;;24.20;99.90;;;;;;5027016;28;20061;-82
2022/06/10 11:11:52;;;;;;;2.90;0.20;;;24.30;99.90;;;;;;5034466;28;20073;-81
2022/06/10 11:14:23;;;;;;;2.17;0.25;;;24.00;99.90;;;;;;5026229;28;20057;-82
2022/06/10 11:17:16;;;;;;;1.52;0.20;;;23.70;99.90;;;;;;5026552;28;20468;-81
2022/06/10 11:19:57;;;;;;;1.92;0.20;;;23.80;99.90;;;;;;5032174;28;20515;-79
2022/06/10 11:22:29;;;;;;;2.55;0.20;;;23.70;99.90;;;;;;5025730;28;20064;-80
2022/06/10 11:25:00;;;;;;;2.63;0.30;;;23.70;99.90;;;;;;5027887;28;20350;-82
2022/06/10 11:27:31;;;;;;;2.45;0.30;;;23.70;99.90;;;;;;5024346;28;20515;-80
2022/06/10 11:30:10;;;;;;;1.77;0.20;;;23.20;99.90;;;;;;5031865;28;20124;-81
2022/06/10 11:32:49;;;;;;;1.67;0.30;;;23.40;99.90;;;;;;5008468;28;20045;-79
2022/06/10 11:35:21;;;;;;;1.35;0.20;;;23.40;99.90;;;;;;5019051;28;20140;-79
2022/06/10 11:37:53;;;;;;;2.53;0.32;;;23.50;99.90;;;;;;5026907;28;20033;-82
2022/06/10 11:40:24;;;;;;;1.52;0.22;;;23.40;99.90;;;;;;5027022;28;20120;-80
2022/06/10 11:43:05;;;;;;;4.50;0.38;;;23.40;99.90;;;;;;5015436;28;20029;-79
2022/06/10 11:45:48;;;;;;;3.15;0.30;;;23.20;99.90;;;;;;5028819;28;20136;-79
2022/06/10 11:48:26;;;;;;;2.03;0.20;;;23.50;99.90;;;;;;5042375;28;20480;-80
2022/06/10 11:51:01;;;;;;;2.28;0.40;;;23.20;99.90;;;;;;5027523;28;20025;-80
2022/06/10 11:53:56;;;;;;;1.73;0.20;;;22.70;99.90;;;;;;5016196;28;20081;-80
2022/06/10 12:02:17;;;;;;;1.58;0.30;;;22.00;99.90;;;;;;5027482;28;20036;-79
2022/06/10 12:04:47;;;;;;;1.48;0.30;;;22.40;99.90;;;;;;5036151;28;20044;-81
2022/06/10 12:07:18;;;;;;;3.53;0.68;;;22.70;99.90;;;;;;5027883;28;20032;-79
2022/06/10 12:09:51;;;;;;;2.15;0.40;;;23.10;99.90;;;;;;5030400;28;20121;-79
2022/06/10 12:12:22;;;;;;;4.10;0.50;;;22.80;99.90;;;;;;5034965;28;20029;-79
2022/06/10 12:14:54;;;;;;;3.55;0.35;;;22.70;99.90;;;;;;5027768;28;20713;-79
2022/06/10 12:17:43;;;;;;;2.72;0.50;;;23.00;99.90;;;;;;5024990;28;20358;-79
2022/06/10 12:20:30;;;;;;;3.50;0.35;;;22.80;99.90;;;;;;5013098;28;20053;-79
2022/06/10 12:22:59;;;;;;;3.15;0.30;;;23.10;99.90;;;;;;5013869;28;20063;-79
2022/06/10 12:25:35;;;;;;;2.55;0.40;;;23.10;99.90;;;;;;5024216;28;20040;-79
2022/06/10 12:28:33;;;;;;;1.95;0.40;;;24.20;99.90;;;;;;5023795;28;20026;-78
2022/06/10 12:31:32;;;;;;;1.52;0.30;;;24.30;99.90;;;;;;5009930;28;20114;-80
2022/06/10 12:34:35;;;;;;;3.95;0.45;;;24.30;99.90;;;;;;5030170;28;20079;-80
2022/06/10 12:37:06;;;;;;;5.32;0.50;;;23.80;99.90;;;;;;5024537;28;20430;-80
2022/06/10 12:40:04;;;;;;;4.38;0.43;;;24.60;99.90;;;;;;5025467;28;20037;-80
2022/06/10 12:43:00;;;;;;;3.83;0.47;;;24.10;99.90;;;;;;5024006;28;20409;-79
2022/06/10 12:45:28;;;;;;;3.05;0.38;;;24.30;99.90;;;;;;5014187;28;20048;-80
2022/06/10 12:48:00;;;;;;;2.85;0.50;;;24.20;99.90;;;;;;5027793;28;20029;-81
2022/06/10 12:50:36;;;;;;;3.03;0.50;;;24.00;99.90;;;;;;5031339;28;20098;-80
2022/06/10 12:53:22;;;;;;;2.53;0.50;;;24.20;99.90;;;;;;5027419;28;20037;-80
2022/06/10 12:55:54;;;;;;;1.70;0.40;;;24.70;99.90;;;;;;5030812;28;20029;-81
2022/06/10 12:58:43;;;;;;;6.85;0.50;;;24.50;99.90;;;;;;5012038;28;20408;-81
2022/06/10 13:01:15;;;;;;;2.95;0.30;;;24.70;99.90;;;;;;5026178;28;20489;-79
2022/06/10 13:03:42;;;;;;;4.20;0.60;;;25.70;99.90;;;;;;5034206;28;20041;-79
2022/06/10 13:06:29;;;;;;;3.40;0.50;;;25.20;99.90;;;;;;5030827;28;20037;-79
2022/06/10 13:09:19;;;;;;;1.55;0.20;;;24.20;99.90;;;;;;5027671;28;20528;-80
2022/06/10 13:11:53;;;;;;;1.45;0.30;;;24.50;99.90;;;;;;5003521;28;20538;-80
2022/06/10 13:14:19;;;;;;;1.38;0.30;;;24.70;99.90;;;;;;5025526;28;20029;-80
2022/06/10 13:16:57;;;;;;;1.80;0.30;;;24.60;99.90;;;;;;5030487;28;20022;-80
2022/06/10 13:19:29;;;;;;;2.95;0.40;;;24.50;99.90;;;;;;5025031;28;20503;-80
2022/06/10 13:21:55;;;;;;;1.98;0.30;;;24.20;99.90;;;;;;5025921;28;20065;-80
2022/06/10 13:24:21;;;;;;;1.33;0.30;;;24.30;99.90;;;;;;5028492;28;20108;-80
2022/06/10 13:26:47;;;;;;;2.45;0.30;;;24.30;99.90;;;;;;5024298;28;20052;-79
2022/06/10 13:29:21;;;;;;;3.35;0.40;;;23.80;99.90;;;;;;5024987;28;20053;-79
2022/06/10 13:31:49;;;;;;;3.70;0.30;;;22.90;99.90;;;;;;5024589;28;20568;-78
2022/06/10 13:34:27;;;;;;;2.60;0.38;;;22.70;99.90;;;;;;5040011;28;20042;-78
2022/06/10 13:37:07;;;;;;;2.28;0.40;;;22.80;99.90;;;;;;5041883;28;20053;-78
2022/06/10 13:39:38;;;;;;;3.15;0.40;;;23.00;99.90;;;;;;5009140;28;20139;-78
2022/06/10 13:42:05;;;;;;;2.10;0.40;;;23.90;99.90;;;;;;5017272;28;20020;-80